Time;durP1;ratioP1;P1;durP2;ratioP2;P2;SDS_P1;SDS_P2;PMS_P1;PMS_P2;Temp;Humidity;BMP_temperature;BMP_pressure;BME280_temperature;BME280_humidity;BME280_pressure;Samples;Min_cycle;Max_cycle;Signal;HPM_P1;HPM_P2
2023/11/26 00:01:50;;;;;;;57.83;16.58;;;2.70;99.90;;;;;;5007768;28;20093;-68
2023/11/26 00:04:15;;;;;;;30.33;16.15;;;2.70;99.90;;;;;;5032701;28;20021;-68
2023/11/26 00:06:45;;;;;;;30.60;15.30;;;2.70;99.90;;;;;;5025654;28;20493;-68
2023/11/26 00:09:11;;;;;;;31.15;15.77;;;2.70;99.90;;;;;;5016190;28;20057;-68
2023/11/26 00:11:37;;;;;;;36.15;17.10;;;2.70;99.90;;;;;;5027246;28;20061;-68
2023/11/26 00:14:03;;;;;;;26.48;12.82;;;2.70;99.90;;;;;;5035248;28;20064;-68
2023/11/26 00:16:34;;;;;;;34.45;16.88;;;2.70;99.90;;;;;;5029018;28;20029;-68
2023/11/26 00:19:00;;;;;;;37.05;17.23;;;2.70;99.90;;;;;;5007883;28;20047;-69
2023/11/26 00:21:26;;;;;;;34.08;16.05;;;2.80;99.90;;;;;;5032104;28;20556;-70
2023/11/26 00:23:51;;;;;;;32.90;16.35;;;2.70;99.90;;;;;;5036650;28;20063;-70
2023/11/26 00:26:17;;;;;;;38.10;18.10;;;2.80;99.90;;;;;;5034001;28;20071;-70
2023/11/26 00:28:45;;;;;;;39.45;18.00;;;2.80;99.90;;;;;;5014491;28;20743;-68
2023/11/26 00:31:10;;;;;;;45.25;18.08;;;2.70;99.90;;;;;;5030112;28;20674;-68
2023/11/26 00:33:36;;;;;;;40.47;18.83;;;2.80;99.90;;;;;;5034372;28;20032;-68
2023/11/26 00:36:03;;;;;;;45.72;21.17;;;2.70;99.90;;;;;;5028689;28;20029;-68
2023/11/26 00:38:28;;;;;;;53.50;20.75;;;2.70;99.90;;;;;;5031359;28;20056;-68
2023/11/26 00:40:55;;;;;;;46.83;19.85;;;2.70;99.90;;;;;;5031809;28;20060;-68
2023/11/26 00:43:20;;;;;;;54.50;21.27;;;2.80;99.90;;;;;;5013719;28;20449;-68
2023/11/26 00:45:46;;;;;;;47.97;19.35;;;2.80;99.90;;;;;;5030878;28;20108;-65
2023/11/26 00:48:14;;;;;;;57.28;24.58;;;2.80;99.90;;;;;;5030261;28;20076;-65
2023/11/26 00:50:42;;;;;;;60.67;24.20;;;2.80;99.90;;;;;;5033023;28;20076;-65
2023/11/26 00:53:07;;;;;;;56.25;22.77;;;2.80;99.90;;;;;;5035102;28;20512;-65
2023/11/26 00:55:33;;;;;;;55.53;20.85;;;2.80;99.90;;;;;;5031402;28;20055;-65
2023/11/26 00:58:02;;;;;;;57.55;22.35;;;2.90;99.90;;;;;;5042825;28;20047;-65
2023/11/26 01:00:28;;;;;;;50.13;20.98;;;2.80;99.90;;;;;;5039759;28;20468;-65
2023/11/26 01:02:54;;;;;;;60.30;22.77;;;2.80;99.90;;;;;;5019196;28;20021;-65
2023/11/26 01:05:20;;;;;;;59.13;24.88;;;2.80;99.90;;;;;;5020025;28;20018;-65
2023/11/26 01:07:46;;;;;;;63.55;22.52;;;2.80;99.90;;;;;;5023793;28;20047;-65
2023/11/26 01:10:11;;;;;;;59.17;23.73;;;2.80;99.90;;;;;;5040595;28;20075;-65
2023/11/26 01:12:37;;;;;;;62.55;23.95;;;2.70;99.90;;;;;;5039153;28;20049;-65
2023/11/26 01:15:06;;;;;;;59.72;22.92;;;2.60;99.90;;;;;;5041220;28;20037;-65
2023/11/26 01:17:32;;;;;;;67.38;23.90;;;2.60;99.90;;;;;;5038122;28;20021;-65
2023/11/26 01:19:57;;;;;;;70.22;24.38;;;2.50;99.90;;;;;;5017565;28;20033;-65
2023/11/26 01:22:24;;;;;;;66.00;23.98;;;2.40;99.90;;;;;;5021789;28;20025;-65
2023/11/26 01:24:51;;;;;;;73.65;26.80;;;2.30;99.90;;;;;;5040046;28;20021;-65
2023/11/26 01:27:19;;;;;;;63.85;24.15;;;2.40;99.90;;;;;;5041760;28;20350;-65
2023/11/26 01:29:45;;;;;;;71.40;25.65;;;2.40;99.90;;;;;;5036549;28;20120;-65
2023/11/26 01:32:11;;;;;;;61.58;23.95;;;2.40;99.90;;;;;;5041182;28;20128;-65
2023/11/26 01:34:39;;;;;;;70.47;25.38;;;2.40;99.90;;;;;;5037645;28;20067;-65
2023/11/26 01:37:05;;;;;;;67.72;25.33;;;2.40;99.90;;;;;;5040640;28;20408;-65
2023/11/26 01:39:30;;;;;;;63.30;24.67;;;2.40;99.90;;;;;;5037595;28;20029;-65
2023/11/26 01:41:56;;;;;;;76.00;25.17;;;2.30;99.90;;;;;;5037587;28;20033;-65
2023/11/26 01:44:22;;;;;;;74.15;26.50;;;2.40;99.90;;;;;;5040336;28;20029;-65
2023/11/26 01:46:48;;;;;;;67.03;23.60;;;2.40;99.90;;;;;;5036604;28;20052;-65
2023/11/26 01:49:14;;;;;;;63.25;23.23;;;2.50;99.90;;;;;;5038551;28;20064;-65
2023/11/26 01:51:41;;;;;;;66.07;23.55;;;2.60;99.90;;;;;;5040230;28;20174;-65
2023/11/26 01:54:07;;;;;;;67.93;24.08;;;2.60;99.90;;;;;;5038639;28;20021;-68
2023/11/26 01:56:33;;;;;;;70.90;23.42;;;2.60;99.90;;;;;;5039286;28;20064;-69
2023/11/26 01:58:59;;;;;;;62.50;22.38;;;2.50;99.90;;;;;;5037900;28;20033;-69
2023/11/26 02:01:25;;;;;;;71.53;23.42;;;2.60;99.90;;;;;;5021577;28;20025;-70
2023/11/26 02:03:51;;;;;;;54.25;18.60;;;2.60;99.90;;;;;;5037901;28;20026;-70
2023/11/26 02:06:17;;;;;;;39.88;15.50;;;2.70;99.90;;;;;;5040782;28;20389;-70
2023/11/26 02:08:44;;;;;;;53.72;19.92;;;2.70;99.90;;;;;;5039795;28;20507;-70
2023/11/26 02:11:10;;;;;;;52.85;19.48;;;2.70;99.90;;;;;;5036776;28;20021;-70
2023/11/26 02:13:52;;;;;;;56.22;20.55;;;2.70;99.90;;;;;;5031456;28;20603;-70
2023/11/26 02:16:17;;;;;;;49.53;18.10;;;2.60;99.90;;;;;;5034842;28;20048;-70
2023/11/26 02:18:43;;;;;;;48.22;18.15;;;2.60;99.90;;;;;;5036429;28;20030;-69
2023/11/26 02:21:09;;;;;;;47.13;19.02;;;2.60;99.90;;;;;;5036865;28;20029;-69
2023/11/26 02:23:37;;;;;;;38.00;14.07;;;2.60;99.90;;;;;;5038055;28;20159;-69
2023/11/26 02:26:06;;;;;;;52.50;16.42;;;2.50;99.90;;;;;;5040531;28;20052;-69
2023/11/26 02:28:35;;;;;;;41.87;15.90;;;2.60;99.90;;;;;;5037211;28;20029;-69
2023/11/26 02:31:01;;;;;;;46.03;17.25;;;2.60;99.90;;;;;;5038068;28;20063;-69
2023/11/26 02:33:27;;;;;;;39.38;15.82;;;2.60;99.90;;;;;;5039102;28;20430;-69
2023/11/26 02:35:52;;;;;;;43.25;16.38;;;2.60;99.90;;;;;;5038289;28;20036;-69
2023/11/26 02:38:18;;;;;;;45.47;16.70;;;2.60;99.90;;;;;;5037479;28;20021;-69
2023/11/26 02:40:44;;;;;;;41.30;15.98;;;2.60;99.90;;;;;;5035837;28;20473;-69
2023/11/26 02:43:12;;;;;;;47.17;17.63;;;2.60;99.90;;;;;;5037849;28;20787;-69
2023/11/26 02:45:37;;;;;;;43.92;17.48;;;2.50;99.90;;;;;;5034481;28;20021;-69
2023/11/26 02:48:03;;;;;;;43.40;16.48;;;2.50;99.90;;;;;;5034623;28;20037;-69
2023/11/26 02:50:29;;;;;;;40.33;16.35;;;2.40;99.90;;;;;;5039378;28;20052;-69
2023/11/26 02:52:54;;;;;;;42.97;16.52;;;2.40;99.90;;;;;;5038318;28;20036;-69
2023/11/26 02:55:20;;;;;;;39.08;15.82;;;2.30;99.90;;;;;;5037170;28;20033;-69
2023/11/26 02:57:45;;;;;;;40.90;16.63;;;2.10;99.90;;;;;;5038400;28;20056;-69
2023/11/26 03:00:20;;;;;;;44.28;17.88;;;2.10;99.90;;;;;;5038461;28;20056;-69
2023/11/26 03:02:49;;;;;;;39.38;16.75;;;2.10;99.90;;;;;;5032806;28;20071;-69
2023/11/26 03:05:19;;;;;;;47.23;17.47;;;2.00;99.90;;;;;;5037477;28;20156;-65
2023/11/26 03:07:46;;;;;;;43.08;17.80;;;1.90;99.90;;;;;;5037731;28;20028;-64
2023/11/26 03:13:12;;;;;;;41.78;16.25;;;1.90;99.90;;;;;;5039275;28;20067;-64
2023/11/26 03:15:39;;;;;;;45.67;16.42;;;1.90;99.90;;;;;;5037875;28;20048;-64
2023/11/26 03:18:08;;;;;;;40.42;16.48;;;1.90;99.90;;;;;;5036384;28;20500;-64
2023/11/26 03:20:37;;;;;;;39.15;15.88;;;2.00;99.90;;;;;;5038910;28;20033;-64
2023/11/26 03:23:06;;;;;;;35.75;15.85;;;2.00;99.90;;;;;;5018227;28;20029;-64
2023/11/26 03:25:33;;;;;;;43.22;15.88;;;2.00;99.90;;;;;;5010913;28;20022;-65
2023/11/26 03:27:58;;;;;;;37.13;15.40;;;2.00;99.90;;;;;;5039806;28;20078;-64
2023/11/26 03:30:26;;;;;;;34.67;15.35;;;1.90;99.90;;;;;;5034678;28;20021;-64
2023/11/26 03:32:54;;;;;;;39.45;15.75;;;1.90;99.90;;;;;;5039817;28;20027;-64
2023/11/26 03:35:20;;;;;;;40.60;14.98;;;1.80;99.90;;;;;;5036558;28;20370;-64
2023/11/26 03:37:45;;;;;;;34.55;14.98;;;1.80;99.90;;;;;;5038357;28;20098;-64
2023/11/26 03:40:12;;;;;;;30.83;15.25;;;1.80;99.90;;;;;;5036803;28;20037;-64
2023/11/26 03:42:39;;;;;;;35.65;15.15;;;1.80;99.90;;;;;;5038437;28;20025;-64
2023/11/26 03:45:06;;;;;;;38.33;15.32;;;1.70;99.90;;;;;;5036611;28;20021;-64
2023/11/26 03:47:32;;;;;;;31.95;15.40;;;1.80;99.90;;;;;;5020147;28;20025;-64
2023/11/26 03:49:58;;;;;;;39.47;15.52;;;1.90;99.90;;;;;;5019342;28;20484;-64
2023/11/26 03:52:23;;;;;;;41.85;14.63;;;1.80;99.90;;;;;;5038452;28;20025;-64
2023/11/26 03:54:49;;;;;;;41.67;16.75;;;1.90;99.90;;;;;;5018752;28;20059;-64
2023/11/26 03:57:15;;;;;;;38.33;16.85;;;2.10;99.90;;;;;;5018452;28;20030;-64
2023/11/26 03:59:44;;;;;;;38.08;16.13;;;2.10;99.90;;;;;;5036035;28;20029;-64
2023/11/26 04:02:10;;;;;;;40.47;16.77;;;2.10;99.90;;;;;;5036907;28;20473;-64
2023/11/26 04:04:37;;;;;;;40.85;17.30;;;2.10;99.90;;;;;;5005370;28;20021;-64
2023/11/26 04:07:05;;;;;;;44.08;18.00;;;2.10;99.90;;;;;;5037119;28;20030;-64
2023/11/26 04:09:30;;;;;;;40.13;17.35;;;2.20;99.90;;;;;;5036223;28;20817;-64
2023/11/26 04:11:56;;;;;;;46.40;19.02;;;2.10;99.90;;;;;;5037948;28;20025;-64
2023/11/26 04:14:23;;;;;;;42.63;17.77;;;2.10;99.90;;;;;;5032650;28;20054;-67
2023/11/26 04:16:49;;;;;;;42.55;16.95;;;2.10;99.90;;;;;;5031109;28;20456;-67
2023/11/26 04:19:16;;;;;;;52.03;20.25;;;2.10;99.90;;;;;;5038025;28;20032;-67
2023/11/26 04:21:45;;;;;;;49.33;19.58;;;2.10;99.90;;;;;;5040434;28;20025;-68
2023/11/26 04:24:12;;;;;;;55.78;21.95;;;2.10;99.90;;;;;;5039351;28;20013;-68
2023/11/26 04:26:38;;;;;;;58.70;20.83;;;2.10;99.90;;;;;;5036485;28;20080;-68
2023/11/26 04:29:03;;;;;;;61.80;21.48;;;2.00;99.90;;;;;;5037885;28;20461;-68
2023/11/26 04:31:29;;;;;;;52.35;20.77;;;2.00;99.90;;;;;;5041983;28;20021;-68
2023/11/26 04:33:54;;;;;;;48.78;19.90;;;2.00;99.90;;;;;;5042839;28;20048;-68
2023/11/26 04:36:21;;;;;;;58.53;21.42;;;2.00;99.90;;;;;;5041556;28;20519;-68
2023/11/26 04:38:46;;;;;;;58.50;23.25;;;2.10;99.90;;;;;;5038395;28;20067;-68
2023/11/26 04:41:12;;;;;;;55.05;20.95;;;2.00;99.90;;;;;;5041327;28;20017;-68
2023/11/26 04:43:38;;;;;;;57.50;21.40;;;2.10;99.90;;;;;;5038250;28;20552;-68
2023/11/26 04:46:04;;;;;;;58.88;20.27;;;2.10;99.90;;;;;;5037684;28;20114;-68
2023/11/26 04:48:30;;;;;;;56.75;22.00;;;2.10;99.90;;;;;;5037676;28;20021;-68
2023/11/26 04:50:56;;;;;;;59.70;20.67;;;2.20;99.90;;;;;;5041382;28;20032;-68
2023/11/26 04:53:23;;;;;;;57.63;20.35;;;2.20;99.90;;;;;;5038712;28;20025;-68
2023/11/26 04:55:49;;;;;;;45.63;17.08;;;2.30;99.90;;;;;;5040029;28;20517;-68
2023/11/26 04:58:15;;;;;;;57.88;19.83;;;2.30;99.90;;;;;;5037919;28;20473;-68
2023/11/26 05:00:40;;;;;;;59.22;18.42;;;2.30;99.90;;;;;;5039399;28;20250;-68
2023/11/26 05:03:06;;;;;;;53.88;18.77;;;2.30;99.90;;;;;;5041105;28;20112;-68
2023/11/26 05:05:32;;;;;;;49.95;18.08;;;2.40;99.90;;;;;;5039554;28;20025;-68
2023/11/26 05:07:57;;;;;;;50.70;15.68;;;2.40;99.90;;;;;;5038158;28;20030;-68
2023/11/26 05:10:24;;;;;;;44.65;17.48;;;2.40;99.90;;;;;;5041364;28;20029;-68
2023/11/26 05:12:49;;;;;;;44.67;17.25;;;2.40;99.90;;;;;;5037411;28;20049;-68
2023/11/26 05:15:16;;;;;;;48.67;16.70;;;2.30;99.90;;;;;;5023557;28;20029;-68
2023/11/26 05:17:41;;;;;;;45.35;15.73;;;2.40;99.90;;;;;;5021396;28;20033;-68
2023/11/26 05:20:13;;;;;;;44.58;16.13;;;2.40;99.90;;;;;;5038636;28;20057;-68
2023/11/26 05:22:41;;;;;;;42.42;15.02;;;2.40;99.90;;;;;;5038145;28;20013;-68
2023/11/26 05:25:07;;;;;;;39.90;13.85;;;2.30;99.90;;;;;;5039001;28;20030;-65
2023/11/26 05:27:33;;;;;;;39.03;13.88;;;2.30;99.90;;;;;;5040634;28;20029;-64
2023/11/26 05:30:01;;;;;;;44.47;13.80;;;2.30;99.90;;;;;;5036602;28;20029;-64
2023/11/26 05:32:28;;;;;;;40.47;12.93;;;2.40;99.90;;;;;;5041311;28;20029;-64
2023/11/26 05:34:54;;;;;;;40.80;13.43;;;2.40;99.90;;;;;;5040550;28;20057;-64
2023/11/26 05:37:20;;;;;;;38.83;13.00;;;2.40;99.90;;;;;;5021464;28;20029;-64
2023/11/26 05:39:46;;;;;;;46.28;15.38;;;2.40;99.90;;;;;;5039850;28;20051;-65
2023/11/26 05:42:13;;;;;;;37.30;12.40;;;2.50;99.90;;;;;;5019682;28;20018;-64
2023/11/26 05:44:40;;;;;;;43.22;12.93;;;2.50;99.90;;;;;;5039900;28;20043;-64
2023/11/26 05:47:06;;;;;;;44.28;13.90;;;2.50;99.90;;;;;;5037476;28;20024;-64
2023/11/26 05:49:32;;;;;;;42.97;12.68;;;2.50;99.90;;;;;;5039032;28;20035;-64
2023/11/26 05:51:58;;;;;;;39.47;13.70;;;2.60;99.90;;;;;;5039763;28;20044;-64
2023/11/26 05:54:24;;;;;;;40.40;13.93;;;2.60;99.90;;;;;;5039707;28;20034;-64
2023/11/26 05:56:50;;;;;;;39.47;13.85;;;2.60;99.90;;;;;;5038818;28;20033;-64
2023/11/26 05:59:16;;;;;;;40.08;14.05;;;2.70;99.90;;;;;;5037849;28;20080;-64
2023/11/26 06:01:44;;;;;;;37.75;13.30;;;2.70;99.90;;;;;;5038718;28;20029;-64
2023/11/26 06:04:10;;;;;;;47.45;16.33;;;2.70;99.90;;;;;;5039946;28;20588;-64
2023/11/26 06:06:35;;;;;;;43.67;15.75;;;2.80;99.90;;;;;;5038697;28;20067;-65
2023/11/26 06:09:01;;;;;;;35.38;12.35;;;2.70;99.90;;;;;;5039587;28;20413;-64
2023/11/26 06:11:27;;;;;;;35.00;10.88;;;2.70;99.90;;;;;;5038384;28;20056;-64
2023/11/26 06:13:52;;;;;;;36.20;12.98;;;4.60;99.90;;;;;;5039416;28;20081;-64
2023/11/26 06:16:18;;;;;;;36.67;13.15;;;2.80;99.90;;;;;;5035447;28;20495;-64
2023/11/26 06:18:46;;;;;;;28.60;11.27;;;2.80;99.90;;;;;;5038680;28;20061;-64
2023/11/26 06:21:14;;;;;;;43.75;15.10;;;2.80;99.90;;;;;;5034903;28;20029;-64
2023/11/26 06:23:40;;;;;;;43.85;14.85;;;2.80;99.90;;;;;;5039398;28;20028;-64
2023/11/26 06:26:06;;;;;;;48.80;15.68;;;2.90;99.90;;;;;;5037451;28;20021;-64
2023/11/26 06:28:31;;;;;;;27.90;10.05;;;2.90;99.90;;;;;;5039747;28;20127;-65
2023/11/26 06:30:57;;;;;;;44.53;16.25;;;2.80;99.90;;;;;;5018641;28;20024;-64
2023/11/26 06:33:24;;;;;;;43.22;15.60;;;2.90;99.90;;;;;;5039941;28;20060;-66
2023/11/26 06:35:50;;;;;;;41.53;13.70;;;2.90;99.90;;;;;;5039416;28;20025;-67
2023/11/26 06:38:15;;;;;;;49.33;16.92;;;2.90;99.90;;;;;;5038171;28;20029;-66
2023/11/26 06:40:43;;;;;;;39.42;16.30;;;2.90;99.90;;;;;;5039383;28;20040;-65
2023/11/26 06:43:09;;;;;;;46.05;16.70;;;2.90;99.90;;;;;;5037986;28;20029;-65
2023/11/26 06:45:35;;;;;;;55.50;18.80;;;2.90;99.90;;;;;;5036521;28;20040;-65
2023/11/26 06:48:01;;;;;;;42.42;15.38;;;2.90;99.90;;;;;;5018658;28;20036;-65
2023/11/26 06:50:27;;;;;;;48.15;19.00;;;2.90;99.90;;;;;;5021775;28;20049;-64
2023/11/26 06:52:52;;;;;;;44.13;15.73;;;2.90;99.90;;;;;;5019248;28;20149;-64
2023/11/26 06:55:18;;;;;;;48.53;17.85;;;2.90;99.90;;;;;;5022034;28;20033;-64
2023/11/26 06:57:44;;;;;;;44.65;17.33;;;2.90;99.90;;;;;;5035535;28;20507;-64
2023/11/26 07:00:11;;;;;;;44.67;16.83;;;2.90;99.90;;;;;;5036839;28;20017;-64
2023/11/26 07:02:37;;;;;;;45.95;14.98;;;2.90;99.90;;;;;;5036411;28;20030;-64
2023/11/26 07:05:04;;;;;;;46.10;17.02;;;2.80;99.90;;;;;;5039763;28;20052;-64
2023/11/26 07:07:29;;;;;;;45.67;15.77;;;2.80;99.90;;;;;;5035848;28;20154;-64
2023/11/26 07:09:57;;;;;;;41.70;16.67;;;2.90;99.90;;;;;;5022193;28;20124;-64
2023/11/26 07:12:22;;;;;;;45.60;15.20;;;2.90;99.90;;;;;;5031907;28;20091;-64
2023/11/26 07:14:50;;;;;;;50.05;17.20;;;2.90;99.90;;;;;;5035624;28;20064;-64
2023/11/26 07:17:16;;;;;;;48.17;16.90;;;2.90;99.90;;;;;;5031463;28;20491;-64
2023/11/26 07:19:42;;;;;;;45.10;15.25;;;2.90;99.90;;;;;;5021229;28;20040;-65
2023/11/26 07:22:08;;;;;;;47.60;15.70;;;2.90;99.90;;;;;;5018789;28;20090;-64
2023/11/26 07:24:34;;;;;;;49.30;16.55;;;2.90;99.90;;;;;;5021827;28;20021;-64
2023/11/26 07:26:59;;;;;;;48.25;16.67;;;2.80;99.90;;;;;;5021821;28;20477;-64
2023/11/26 07:29:25;;;;;;;39.78;15.52;;;2.80;99.90;;;;;;5016778;28;20095;-64
2023/11/26 07:31:53;;;;;;;40.33;15.68;;;2.80;99.90;;;;;;5039071;28;20028;-64
2023/11/26 07:34:18;;;;;;;43.65;14.07;;;2.80;99.90;;;;;;5036617;28;20033;-64
2023/11/26 07:36:50;;;;;;;40.40;14.70;;;2.80;99.90;;;;;;5021096;28;20522;-66
2023/11/26 07:39:15;;;;;;;36.30;12.98;;;2.80;99.90;;;;;;5037333;28;20033;-66
2023/11/26 07:41:46;;;;;;;47.25;14.68;;;2.90;99.90;;;;;;5038061;28;20021;-66
2023/11/26 07:44:16;;;;;;;38.10;13.15;;;2.90;99.90;;;;;;5038100;28;20055;-68
2023/11/26 07:46:41;;;;;;;37.63;14.25;;;2.90;99.90;;;;;;5034469;28;20029;-68
2023/11/26 07:49:07;;;;;;;38.42;12.45;;;3.00;99.90;;;;;;5038402;28;20030;-68
2023/11/26 07:51:33;;;;;;;41.97;14.75;;;2.90;99.90;;;;;;5018676;28;20400;-68
2023/11/26 07:53:58;;;;;;;39.70;15.32;;;2.90;99.90;;;;;;5040039;28;20025;-68
2023/11/26 07:56:24;;;;;;;46.60;13.85;;;3.00;99.90;;;;;;5021936;28;20032;-68
2023/11/26 07:58:50;;;;;;;41.65;14.48;;;3.00;99.90;;;;;;5040700;28;20025;-68
2023/11/26 08:01:18;;;;;;;39.80;14.02;;;3.00;99.90;;;;;;5018781;28;20026;-67
2023/11/26 08:03:44;;;;;;;40.65;13.48;;;3.00;99.90;;;;;;5036116;28;20021;-67
2023/11/26 08:06:13;;;;;;;34.38;11.27;;;3.10;99.90;;;;;;5033970;28;20404;-67
2023/11/26 08:08:40;;;;;;;41.20;15.02;;;3.20;99.90;;;;;;5034709;28;20036;-68
2023/11/26 08:11:07;;;;;;;38.08;13.55;;;3.20;99.90;;;;;;5037518;28;20021;-70
2023/11/26 08:13:37;;;;;;;34.65;15.02;;;3.20;99.90;;;;;;5034698;28;20053;-70
2023/11/26 08:16:10;;;;;;;41.90;13.25;;;3.20;99.90;;;;;;5007358;28;20171;-70
2023/11/26 08:18:36;;;;;;;39.42;14.40;;;3.20;99.90;;;;;;5018945;28;20029;-69
2023/11/26 08:21:06;;;;;;;49.90;17.13;;;3.20;99.90;;;;;;5014978;28;20063;-68
2023/11/26 08:23:33;;;;;;;42.00;15.33;;;3.30;99.90;;;;;;5038588;28;20057;-69
2023/11/26 08:26:00;;;;;;;40.83;15.48;;;3.30;99.90;;;;;;5039010;28;20298;-68
2023/11/26 08:28:28;;;;;;;42.13;15.23;;;3.30;99.90;;;;;;5019527;28;20358;-70
2023/11/26 08:30:55;;;;;;;38.15;14.55;;;3.40;99.90;;;;;;5025447;28;20161;-70
2023/11/26 08:33:25;;;;;;;40.58;14.77;;;3.40;99.90;;;;;;5030101;28;20065;-69
2023/11/26 08:35:53;;;;;;;46.22;14.65;;;3.50;99.90;;;;;;5037440;28;20053;-69
2023/11/26 08:38:19;;;;;;;36.83;14.45;;;3.50;99.90;;;;;;5018334;28;20047;-70
2023/11/26 08:40:45;;;;;;;41.72;16.67;;;3.50;99.90;;;;;;5038300;28;20484;-71
2023/11/26 08:43:13;;;;;;;35.90;14.15;;;3.60;99.90;;;;;;5012928;28;20014;-71
2023/11/26 08:45:42;;;;;;;41.83;14.50;;;3.60;99.90;;;;;;5030882;28;20067;-71
2023/11/26 08:48:10;;;;;;;47.13;16.58;;;3.60;99.90;;;;;;5025483;28;20028;-70
2023/11/26 08:50:36;;;;;;;40.97;15.98;;;3.60;99.90;;;;;;5018386;28;20750;-68
2023/11/26 08:53:05;;;;;;;43.33;14.23;;;3.70;99.90;;;;;;5021164;28;20063;-70
2023/11/26 08:55:34;;;;;;;34.33;13.63;;;3.70;99.90;;;;;;5029887;28;20036;-66
2023/11/26 08:58:00;;;;;;;44.28;15.90;;;3.80;99.90;;;;;;5033256;28;20060;-66
2023/11/26 09:00:26;;;;;;;24.90;9.52;;;3.80;99.90;;;;;;5019443;28;20022;-66
2023/11/26 09:02:52;;;;;;;32.38;10.30;;;3.90;99.90;;;;;;5018703;28;20105;-67
2023/11/26 09:05:18;;;;;;;39.33;14.23;;;4.00;99.90;;;;;;5012474;28;20120;-67
2023/11/26 09:07:45;;;;;;;41.38;13.25;;;4.10;99.90;;;;;;5032603;28;20087;-68
2023/11/26 09:10:13;;;;;;;36.90;14.52;;;4.10;99.90;;;;;;5036327;28;20036;-68
2023/11/26 09:12:39;;;;;;;37.78;16.55;;;4.10;99.90;;;;;;5032882;28;20057;-68
2023/11/26 09:15:07;;;;;;;38.65;14.68;;;4.10;99.90;;;;;;5035773;28;20017;-68
2023/11/26 09:17:35;;;;;;;29.65;11.98;;;4.10;99.90;;;;;;5017942;28;20026;-66
2023/11/26 09:20:01;;;;;;;41.78;16.38;;;4.20;99.90;;;;;;5037064;28;20029;-66
2023/11/26 09:22:26;;;;;;;22.92;9.73;;;4.20;99.90;;;;;;5016605;28;20074;-67
2023/11/26 09:24:54;;;;;;;33.85;14.07;;;4.20;99.90;;;;;;5030996;28;20025;-68
2023/11/26 09:27:20;;;;;;;48.90;16.35;;;4.20;99.90;;;;;;5033974;28;20026;-68
2023/11/26 09:29:45;;;;;;;34.40;13.95;;;4.20;99.90;;;;;;5034797;28;20029;-67
2023/11/26 09:32:13;;;;;;;36.42;14.35;;;4.20;99.90;;;;;;5031835;28;20090;-67
2023/11/26 09:34:40;;;;;;;32.20;13.38;;;4.20;99.90;;;;;;5030808;28;20047;-67
2023/11/26 09:37:05;;;;;;;35.90;14.52;;;4.30;99.90;;;;;;5030320;28;20543;-68
2023/11/26 09:39:33;;;;;;;31.35;12.05;;;4.40;99.90;;;;;;5034618;28;20037;-68
2023/11/26 09:42:02;;;;;;;38.42;14.52;;;4.40;99.90;;;;;;5032457;28;20026;-66
2023/11/26 09:44:28;;;;;;;24.00;8.57;;;4.50;99.90;;;;;;5027589;28;20033;-68
2023/11/26 09:46:55;;;;;;;35.13;16.05;;;4.60;99.90;;;;;;5039368;28;20032;-68
2023/11/26 09:49:20;;;;;;;17.88;8.23;;;4.60;99.90;;;;;;5039847;28;20021;-69
2023/11/26 09:51:54;;;;;;;35.55;14.10;;;4.60;99.90;;;;;;5029794;28;20530;-66
2023/11/26 09:54:20;;;;;;;41.08;13.65;;;4.70;99.90;;;;;;5018767;28;20147;-66
2023/11/26 09:56:47;;;;;;;35.28;14.27;;;4.80;99.90;;;;;;5028760;28;20452;-66
2023/11/26 09:59:24;;;;;;;34.63;14.23;;;4.80;99.90;;;;;;5035350;28;20780;-66
2023/11/26 10:01:53;;;;;;;37.05;13.35;;;4.90;99.90;;;;;;5031450;28;20143;-67
2023/11/26 10:04:21;;;;;;;34.80;13.75;;;4.90;99.90;;;;;;5035180;28;20021;-67
2023/11/26 10:06:51;;;;;;;35.58;15.45;;;5.00;99.90;;;;;;5031906;28;20459;-65
2023/11/26 10:09:17;;;;;;;39.60;15.30;;;5.00;99.90;;;;;;5019988;28;20026;-65
2023/11/26 10:11:43;;;;;;;36.20;14.57;;;5.00;99.90;;;;;;5038982;28;20372;-65
2023/11/26 10:14:18;;;;;;;40.40;14.63;;;5.00;99.90;;;;;;5033782;28;20049;-65
2023/11/26 10:16:44;;;;;;;29.58;13.30;;;5.00;99.90;;;;;;5032577;28;20033;-65
2023/11/26 10:19:27;;;;;;;40.97;15.18;;;5.10;99.90;;;;;;5026074;28;20199;-64
2023/11/26 10:21:56;;;;;;;33.03;11.77;;;5.10;99.90;;;;;;5024589;28;20092;-64
2023/11/26 10:24:24;;;;;;;31.65;12.65;;;5.10;99.90;;;;;;5027962;28;20025;-64
2023/11/26 10:26:52;;;;;;;37.83;13.50;;;5.20;99.90;;;;;;5035166;28;20053;-64
2023/11/26 10:29:21;;;;;;;37.72;12.80;;;5.30;99.90;;;;;;5024383;28;20025;-64
2023/11/26 10:32:00;;;;;;;32.67;14.50;;;5.30;99.90;;;;;;5034178;28;20030;-66
2023/11/26 10:34:26;;;;;;;30.08;11.27;;;5.30;99.90;;;;;;5029241;28;20029;-66
2023/11/26 10:36:52;;;;;;;30.38;11.68;;;5.30;99.90;;;;;;5024069;28;20029;-64
2023/11/26 10:39:18;;;;;;;35.05;11.30;;;5.30;99.90;;;;;;5027514;28;20375;-64
2023/11/26 10:41:46;;;;;;;37.20;14.50;;;5.30;99.90;;;;;;5039293;28;20464;-64
2023/11/26 10:44:14;;;;;;;26.13;10.43;;;5.30;99.90;;;;;;5033699;28;20022;-64
2023/11/26 10:46:43;;;;;;;34.90;13.25;;;5.30;99.90;;;;;;5037221;28;20362;-64
2023/11/26 10:49:27;;;;;;;33.30;12.43;;;5.40;99.90;;;;;;5039579;28;20472;-64
2023/11/26 10:52:41;;;;;;;31.92;12.30;;;5.40;99.90;;;;;;5031946;28;20075;-64
2023/11/26 10:55:10;;;;;;;37.97;13.48;;;5.40;99.90;;;;;;5030124;28;20045;-64
2023/11/26 10:57:45;;;;;;;32.13;12.77;;;5.40;99.90;;;;;;5035752;28;20473;-64
2023/11/26 11:00:18;;;;;;;25.67;10.90;;;5.50;99.90;;;;;;5036574;28;20060;-64
2023/11/26 11:02:51;;;;;;;33.40;11.98;;;5.50;99.90;;;;;;5022957;28;20029;-65
2023/11/26 11:05:22;;;;;;;30.90;11.80;;;5.60;99.90;;;;;;5023094;28;20029;-64
2023/11/26 11:07:48;;;;;;;30.33;12.90;;;5.60;99.90;;;;;;5026188;28;20022;-64
2023/11/26 11:10:41;;;;;;;31.67;9.98;;;5.50;99.90;;;;;;5037704;28;20040;-64
2023/11/26 11:13:12;;;;;;;31.25;13.55;;;5.50;99.90;;;;;;5037788;28;20139;-64
2023/11/26 11:15:44;;;;;;;33.90;13.98;;;5.60;99.90;;;;;;5020053;28;20029;-67
2023/11/26 11:18:30;;;;;;;44.38;14.52;;;5.60;99.90;;;;;;5037119;28;20030;-67
2023/11/26 11:21:09;;;;;;;32.78;11.07;;;5.60;99.90;;;;;;5020369;28;20030;-67
2023/11/26 11:23:50;;;;;;;37.88;13.57;;;5.60;99.90;;;;;;4996341;28;20028;-67
2023/11/26 11:26:18;;;;;;;40.40;14.20;;;5.50;99.90;;;;;;5040422;28;20053;-67
2023/11/26 11:28:48;;;;;;;32.72;13.57;;;5.60;99.90;;;;;;5037715;28;20384;-67
2023/11/26 11:31:14;;;;;;;;;;;5.60;99.90;;;;;;5037244;28;20030;-68
2023/11/26 11:34:01;;;;;;;40.03;13.60;;;5.80;99.90;;;;;;5040682;28;20261;-67
2023/11/26 11:36:46;;;;;;;39.20;13.30;;;5.90;99.90;;;;;;5038495;28;20029;-67
2023/11/26 11:39:16;;;;;;;28.23;10.77;;;5.90;99.90;;;;;;5035641;28;20101;-67
2023/11/26 11:41:57;;;;;;;33.23;12.97;;;5.90;99.90;;;;;;5012865;28;20029;-67
2023/11/26 11:44:37;;;;;;;32.92;12.93;;;5.70;99.90;;;;;;5039047;28;20392;-67
2023/11/26 11:47:06;;;;;;;27.48;10.88;;;5.70;99.90;;;;;;5032370;28;20033;-67
2023/11/26 11:49:51;;;;;;;34.28;14.77;;;5.80;99.90;;;;;;5023945;28;20030;-67
2023/11/26 11:52:17;;;;;;;32.10;12.50;;;6.20;99.90;;;;;;5026958;28;20470;-67
2023/11/26 11:54:55;;;;;;;27.67;10.35;;;6.80;99.90;;;;;;5029928;28;20071;-67
2023/11/26 11:57:28;;;;;;;31.90;13.85;;;6.90;99.90;;;;;;5024928;28;20039;-67
2023/11/26 11:59:59;;;;;;;28.15;13.38;;;6.50;99.90;;;;;;5016776;28;20025;-67
2023/11/26 12:02:30;;;;;;;24.05;11.70;;;6.40;99.90;;;;;;5013391;28;20040;-67
2023/11/26 12:04:56;;;;;;;25.90;10.48;;;6.30;99.90;;;;;;5021240;28;20028;-67
2023/11/26 12:07:31;;;;;;;31.58;14.63;;;6.30;99.90;;;;;;5031363;28;20021;-67
2023/11/26 12:09:58;;;;;;;33.67;14.63;;;6.20;99.90;;;;;;5032979;28;20768;-67
2023/11/26 12:12:24;;;;;;;34.28;14.55;;;6.10;99.90;;;;;;5029303;28;20041;-67
2023/11/26 12:14:50;;;;;;;40.90;15.43;;;6.10;99.90;;;;;;5029353;28;20231;-67
2023/11/26 12:17:16;;;;;;;34.40;14.68;;;6.10;99.90;;;;;;5031718;28;20029;-68
2023/11/26 12:19:43;;;;;;;32.88;11.05;;;6.20;99.90;;;;;;5032916;28;20013;-67
2023/11/26 12:22:10;;;;;;;28.88;12.95;;;6.10;99.90;;;;;;5004670;28;20021;-67
2023/11/26 12:24:37;;;;;;;33.58;13.35;;;6.10;99.90;;;;;;5026655;28;20027;-67
2023/11/26 12:27:04;;;;;;;38.95;14.88;;;6.10;99.90;;;;;;5014007;28;20702;-67
2023/11/26 12:29:37;;;;;;;38.53;15.23;;;6.20;99.90;;;;;;5032039;28;20026;-67
2023/11/26 12:32:08;;;;;;;29.83;12.70;;;6.20;99.90;;;;;;5031463;28;20021;-67
2023/11/26 12:34:39;;;;;;;28.25;12.07;;;6.30;99.90;;;;;;5017233;28;20116;-67
2023/11/26 12:37:10;;;;;;;34.83;13.98;;;6.30;99.90;;;;;;5031993;28;20112;-67
2023/11/26 12:39:38;;;;;;;32.38;14.05;;;6.40;99.90;;;;;;5012909;28;20069;-67
2023/11/26 12:42:04;;;;;;;32.70;15.85;;;6.50;99.90;;;;;;5029956;28;20017;-67
2023/11/26 12:44:33;;;;;;;31.73;14.05;;;6.60;99.90;;;;;;5023630;28;20060;-67